sensor_id;sensor_type;location;lat;lon;timestamp;P1;durP1;ratioP1;P2;durP2;ratioP2
10283;SDS011;5187;52.378;9.018;2022-07-23T00:01:30;11.97;;;8.07;;
10283;SDS011;5187;52.378;9.018;2022-07-23T00:03:59;10.30;;;8.57;;
10283;SDS011;5187;52.378;9.018;2022-07-23T00:06:28;8.97;;;8.07;;
10283;SDS011;5187;52.378;9.018;2022-07-23T00:08:56;9.30;;;8.40;;
10283;SDS011;5187;52.378;9.018;2022-07-23T00:11:26;9.13;;;7.90;;
10283;SDS011;5187;52.378;9.018;2022-07-23T00:13:55;8.00;;;7.17;;
10283;SDS011;5187;52.378;9.018;2022-07-23T00:16:24;8.87;;;7.57;;
10283;SDS011;5187;52.378;9.018;2022-07-23T00:18:53;9.07;;;7.30;;
10283;SDS011;5187;52.378;9.018;2022-07-23T00:21:21;10.53;;;8.07;;
10283;SDS011;5187;52.378;9.018;2022-07-23T00:23:50;9.87;;;7.20;;
10283;SDS011;5187;52.378;9.018;2022-07-23T00:26:18;8.33;;;7.47;;
10283;SDS011;5187;52.378;9.018;2022-07-23T00:28:48;8.50;;;7.70;;
10283;SDS011;5187;52.378;9.018;2022-07-23T00:31:17;8.07;;;7.30;;
10283;SDS011;5187;52.378;9.018;2022-07-23T00:33:45;9.70;;;7.47;;
10283;SDS011;5187;52.378;9.018;2022-07-23T00:36:14;8.07;;;7.27;;
10283;SDS011;5187;52.378;9.018;2022-07-23T00:38:42;8.93;;;7.00;;
10283;SDS011;5187;52.378;9.018;2022-07-23T00:41:10;11.80;;;8.00;;
10283;SDS011;5187;52.378;9.018;2022-07-23T00:43:39;7.73;;;6.93;;
10283;SDS011;5187;52.378;9.018;2022-07-23T00:46:09;8.30;;;7.47;;
10283;SDS011;5187;52.378;9.018;2022-07-23T00:48:37;9.20;;;7.53;;
10283;SDS011;5187;52.378;9.018;2022-07-23T00:51:06;8.37;;;7.30;;
10283;SDS011;5187;52.378;9.018;2022-07-23T00:53:34;7.40;;;6.70;;
10283;SDS011;5187;52.378;9.018;2022-07-23T00:56:03;8.13;;;7.30;;
10283;SDS011;5187;52.378;9.018;2022-07-23T00:58:31;8.63;;;7.70;;
10283;SDS011;5187;52.378;9.018;2022-07-23T01:01:01;9.00;;;7.90;;
10283;SDS011;5187;52.378;9.018;2022-07-23T01:03:31;9.33;;;8.47;;
10283;SDS011;5187;52.378;9.018;2022-07-23T01:05:59;9.63;;;8.63;;
10283;SDS011;5187;52.378;9.018;2022-07-23T01:08:28;9.40;;;8.40;;
10283;SDS011;5187;52.378;9.018;2022-07-23T01:10:56;9.80;;;8.80;;
10283;SDS011;5187;52.378;9.018;2022-07-23T01:13:24;12.77;;;9.33;;
10283;SDS011;5187;52.378;9.018;2022-07-23T01:15:53;10.10;;;9.03;;
10283;SDS011;5187;52.378;9.018;2022-07-23T01:18:21;10.33;;;8.83;;
10283;SDS011;5187;52.378;9.018;2022-07-23T01:20:51;9.93;;;8.93;;
10283;SDS011;5187;52.378;9.018;2022-07-23T01:23:21;9.50;;;8.60;;
10283;SDS011;5187;52.378;9.018;2022-07-23T01:25:52;10.23;;;8.83;;
10283;SDS011;5187;52.378;9.018;2022-07-23T01:28:20;8.73;;;7.97;;
10283;SDS011;5187;52.378;9.018;2022-07-23T01:30:49;9.23;;;8.20;;
10283;SDS011;5187;52.378;9.018;2022-07-23T01:33:17;9.53;;;8.67;;
10283;SDS011;5187;52.378;9.018;2022-07-23T01:35:46;11.20;;;9.00;;
10283;SDS011;5187;52.378;9.018;2022-07-23T01:38:14;10.73;;;9.53;;
10283;SDS011;5187;52.378;9.018;2022-07-23T01:40:44;12.13;;;10.17;;
10283;SDS011;5187;52.378;9.018;2022-07-23T01:43:19;11.27;;;10.27;;
10283;SDS011;5187;52.378;9.018;2022-07-23T01:45:50;14.30;;;9.47;;
10283;SDS011;5187;52.378;9.018;2022-07-23T01:48:19;11.07;;;9.90;;
10283;SDS011;5187;52.378;9.018;2022-07-23T01:50:47;9.97;;;9.07;;
10283;SDS011;5187;52.378;9.018;2022-07-23T01:53:16;10.67;;;9.47;;
10283;SDS011;5187;52.378;9.018;2022-07-23T01:55:46;10.33;;;9.33;;
10283;SDS011;5187;52.378;9.018;2022-07-23T01:58:14;9.63;;;8.57;;
10283;SDS011;5187;52.378;9.018;2022-07-23T02:00:42;10.97;;;9.90;;
10283;SDS011;5187;52.378;9.018;2022-07-23T02:03:11;9.43;;;8.53;;
10283;SDS011;5187;52.378;9.018;2022-07-23T02:05:39;10.27;;;9.17;;
10283;SDS011;5187;52.378;9.018;2022-07-23T02:08:08;10.73;;;9.40;;
10283;SDS011;5187;52.378;9.018;2022-07-23T02:10:36;10.43;;;9.43;;
10283;SDS011;5187;52.378;9.018;2022-07-23T02:13:06;11.97;;;10.77;;
10283;SDS011;5187;52.378;9.018;2022-07-23T02:15:35;12.03;;;10.90;;
10283;SDS011;5187;52.378;9.018;2022-07-23T02:18:03;11.93;;;10.73;;
10283;SDS011;5187;52.378;9.018;2022-07-23T02:20:31;12.70;;;11.50;;
10283;SDS011;5187;52.378;9.018;2022-07-23T02:23:00;14.07;;;12.77;;
10283;SDS011;5187;52.378;9.018;2022-07-23T02:25:28;13.13;;;11.67;;
10283;SDS011;5187;52.378;9.018;2022-07-23T02:27:57;13.80;;;12.40;;
10283;SDS011;5187;52.378;9.018;2022-07-23T02:30:27;12.70;;;11.43;;
10283;SDS011;5187;52.378;9.018;2022-07-23T02:32:55;13.20;;;12.00;;
10283;SDS011;5187;52.378;9.018;2022-07-23T02:35:23;12.53;;;11.23;;
10283;SDS011;5187;52.378;9.018;2022-07-23T02:37:52;13.87;;;11.73;;
10283;SDS011;5187;52.378;9.018;2022-07-23T02:40:20;12.73;;;11.50;;
10283;SDS011;5187;52.378;9.018;2022-07-23T02:42:49;14.13;;;12.73;;
10283;SDS011;5187;52.378;9.018;2022-07-23T02:45:17;12.80;;;11.70;;
10283;SDS011;5187;52.378;9.018;2022-07-23T02:47:47;14.27;;;11.77;;
10283;SDS011;5187;52.378;9.018;2022-07-23T02:50:15;12.47;;;11.27;;
10283;SDS011;5187;52.378;9.018;2022-07-23T02:52:44;12.97;;;11.60;;
10283;SDS011;5187;52.378;9.018;2022-07-23T02:55:12;14.13;;;10.77;;
10283;SDS011;5187;52.378;9.018;2022-07-23T02:57:40;12.93;;;11.63;;
10283;SDS011;5187;52.378;9.018;2022-07-23T03:00:09;13.07;;;11.67;;
10283;SDS011;5187;52.378;9.018;2022-07-23T03:02:38;12.53;;;11.23;;
10283;SDS011;5187;52.378;9.018;2022-07-23T03:05:08;12.80;;;11.50;;
10283;SDS011;5187;52.378;9.018;2022-07-23T03:07:36;13.23;;;11.10;;
10283;SDS011;5187;52.378;9.018;2022-07-23T03:10:05;12.50;;;11.27;;
10283;SDS011;5187;52.378;9.018;2022-07-23T03:12:33;13.93;;;12.70;;
10283;SDS011;5187;52.378;9.018;2022-07-23T03:15:02;14.37;;;12.87;;
10283;SDS011;5187;52.378;9.018;2022-07-23T03:17:31;14.73;;;12.80;;
10283;SDS011;5187;52.378;9.018;2022-07-23T03:19:59;12.97;;;11.87;;
10283;SDS011;5187;52.378;9.018;2022-07-23T03:22:29;13.47;;;12.07;;
10283;SDS011;5187;52.378;9.018;2022-07-23T03:24:58;14.50;;;11.43;;
10283;SDS011;5187;52.378;9.018;2022-07-23T03:27:27;14.30;;;12.73;;
10283;SDS011;5187;52.378;9.018;2022-07-23T03:29:56;13.90;;;11.83;;
10283;SDS011;5187;52.378;9.018;2022-07-23T03:32:25;14.13;;;12.40;;
10283;SDS011;5187;52.378;9.018;2022-07-23T03:34:53;12.70;;;11.20;;
10283;SDS011;5187;52.378;9.018;2022-07-23T03:37:23;14.37;;;12.97;;
10283;SDS011;5187;52.378;9.018;2022-07-23T03:39:53;14.60;;;13.10;;
10283;SDS011;5187;52.378;9.018;2022-07-23T03:42:21;16.30;;;12.50;;
10283;SDS011;5187;52.378;9.018;2022-07-23T03:44:49;13.87;;;12.47;;
10283;SDS011;5187;52.378;9.018;2022-07-23T03:47:18;13.93;;;12.53;;
10283;SDS011;5187;52.378;9.018;2022-07-23T03:49:48;13.77;;;12.47;;
10283;SDS011;5187;52.378;9.018;2022-07-23T03:52:16;14.03;;;12.40;;
10283;SDS011;5187;52.378;9.018;2022-07-23T03:54:45;13.97;;;12.50;;
10283;SDS011;5187;52.378;9.018;2022-07-23T03:57:15;14.73;;;12.97;;
10283;SDS011;5187;52.378;9.018;2022-07-23T03:59:43;13.87;;;12.47;;
10283;SDS011;5187;52.378;9.018;2022-07-23T04:02:11;14.20;;;12.70;;
10283;SDS011;5187;52.378;9.018;2022-07-23T04:04:40;15.70;;;13.00;;
10283;SDS011;5187;52.378;9.018;2022-07-23T04:07:08;15.30;;;13.07;;
10283;SDS011;5187;52.378;9.018;2022-07-23T04:09:37;14.90;;;12.37;;
10283;SDS011;5187;52.378;9.018;2022-07-23T04:12:11;14.00;;;12.70;;
10283;SDS011;5187;52.378;9.018;2022-07-23T04:14:41;14.30;;;12.90;;
10283;SDS011;5187;52.378;9.018;2022-07-23T04:17:09;14.43;;;13.03;;
10283;SDS011;5187;52.378;9.018;2022-07-23T04:19:38;14.17;;;12.70;;
10283;SDS011;5187;52.378;9.018;2022-07-23T04:22:08;14.20;;;12.70;;
10283;SDS011;5187;52.378;9.018;2022-07-23T04:24:36;14.87;;;13.37;;
10283;SDS011;5187;52.378;9.018;2022-07-23T04:27:05;13.97;;;12.47;;
10283;SDS011;5187;52.378;9.018;2022-07-23T04:29:33;14.77;;;13.07;;
10283;SDS011;5187;52.378;9.018;2022-07-23T04:32:03;14.77;;;13.30;;
10283;SDS011;5187;52.378;9.018;2022-07-23T04:34:32;14.23;;;12.80;;
10283;SDS011;5187;52.378;9.018;2022-07-23T04:37:00;14.73;;;13.37;;
10283;SDS011;5187;52.378;9.018;2022-07-23T04:39:29;14.93;;;13.53;;
10283;SDS011;5187;52.378;9.018;2022-07-23T04:41:57;15.60;;;13.90;;
10283;SDS011;5187;52.378;9.018;2022-07-23T04:44:26;15.53;;;13.10;;
10283;SDS011;5187;52.378;9.018;2022-07-23T04:46:54;14.80;;;13.27;;
10283;SDS011;5187;52.378;9.018;2022-07-23T04:49:24;13.83;;;12.47;;
10283;SDS011;5187;52.378;9.018;2022-07-23T04:51:52;14.27;;;12.77;;
10283;SDS011;5187;52.378;9.018;2022-07-23T04:54:21;14.53;;;13.03;;
10283;SDS011;5187;52.378;9.018;2022-07-23T04:56:49;15.73;;;14.03;;
10283;SDS011;5187;52.378;9.018;2022-07-23T04:59:18;15.20;;;13.73;;
10283;SDS011;5187;52.378;9.018;2022-07-23T05:01:46;16.00;;;13.80;;
10283;SDS011;5187;52.378;9.018;2022-07-23T05:04:14;15.80;;;14.13;;
10283;SDS011;5187;52.378;9.018;2022-07-23T05:06:44;16.30;;;14.07;;
10283;SDS011;5187;52.378;9.018;2022-07-23T05:09:13;14.93;;;13.37;;
10283;SDS011;5187;52.378;9.018;2022-07-23T05:11:42;15.87;;;13.93;;
10283;SDS011;5187;52.378;9.018;2022-07-23T05:14:10;15.40;;;13.80;;
10283;SDS011;5187;52.378;9.018;2022-07-23T05:16:39;15.90;;;14.20;;
10283;SDS011;5187;52.378;9.018;2022-07-23T05:19:07;16.33;;;14.73;;
10283;SDS011;5187;52.378;9.018;2022-07-23T05:21:35;14.87;;;13.40;;
10283;SDS011;5187;52.378;9.018;2022-07-23T05:24:06;15.53;;;14.10;;
10283;SDS011;5187;52.378;9.018;2022-07-23T05:26:34;15.67;;;14.27;;
10283;SDS011;5187;52.378;9.018;2022-07-23T05:29:02;15.60;;;14.00;;
10283;SDS011;5187;52.378;9.018;2022-07-23T05:31:32;15.23;;;13.73;;
10283;SDS011;5187;52.378;9.018;2022-07-23T05:34:00;16.37;;;14.77;;
10283;SDS011;5187;52.378;9.018;2022-07-23T05:36:30;16.07;;;14.37;;
10283;SDS011;5187;52.378;9.018;2022-07-23T05:38:59;15.70;;;14.20;;
10283;SDS011;5187;52.378;9.018;2022-07-23T05:41:29;15.53;;;14.03;;
10283;SDS011;5187;52.378;9.018;2022-07-23T05:43:57;15.10;;;13.53;;
10283;SDS011;5187;52.378;9.018;2022-07-23T05:46:26;14.43;;;13.03;;
10283;SDS011;5187;52.378;9.018;2022-07-23T05:48:55;14.63;;;13.20;;
10283;SDS011;5187;52.378;9.018;2022-07-23T05:51:24;14.57;;;12.83;;
10283;SDS011;5187;52.378;9.018;2022-07-23T05:53:53;13.70;;;12.30;;
10283;SDS011;5187;52.378;9.018;2022-07-23T05:56:21;13.33;;;11.43;;
10283;SDS011;5187;52.378;9.018;2022-07-23T05:58:51;13.93;;;12.60;;
10283;SDS011;5187;52.378;9.018;2022-07-23T06:01:19;14.00;;;12.23;;
10283;SDS011;5187;52.378;9.018;2022-07-23T06:03:48;13.70;;;12.17;;
10283;SDS011;5187;52.378;9.018;2022-07-23T06:06:16;12.37;;;11.10;;
10283;SDS011;5187;52.378;9.018;2022-07-23T06:08:45;10.87;;;9.80;;
10283;SDS011;5187;52.378;9.018;2022-07-23T06:11:13;11.20;;;9.63;;
10283;SDS011;5187;52.378;9.018;2022-07-23T06:13:41;11.87;;;10.57;;
10283;SDS011;5187;52.378;9.018;2022-07-23T06:16:11;10.13;;;9.13;;
10283;SDS011;5187;52.378;9.018;2022-07-23T06:18:44;10.37;;;9.30;;
10283;SDS011;5187;52.378;9.018;2022-07-23T06:21:12;10.10;;;9.03;;
10283;SDS011;5187;52.378;9.018;2022-07-23T06:24:00;11.80;;;8.03;;
10283;SDS011;5187;52.378;9.018;2022-07-23T06:26:29;10.03;;;8.60;;
10283;SDS011;5187;52.378;9.018;2022-07-23T06:28:57;9.02;;;8.10;;
10283;SDS011;5187;52.378;9.018;2022-07-23T06:31:28;9.32;;;7.63;;
10283;SDS011;5187;52.378;9.018;2022-07-23T06:33:56;11.20;;;8.75;;
10283;SDS011;5187;52.378;9.018;2022-07-23T06:36:25;8.02;;;7.15;;
10283;SDS011;5187;52.378;9.018;2022-07-23T06:38:53;9.93;;;6.93;;
10283;SDS011;5187;52.378;9.018;2022-07-23T06:41:22;7.53;;;6.30;;
10283;SDS011;5187;52.378;9.018;2022-07-23T06:43:51;8.55;;;6.75;;
10283;SDS011;5187;52.378;9.018;2022-07-23T06:46:19;8.95;;;5.88;;
10283;SDS011;5187;52.378;9.018;2022-07-23T06:48:49;6.63;;;5.80;;
10283;SDS011;5187;52.378;9.018;2022-07-23T06:51:18;6.80;;;5.05;;
10283;SDS011;5187;52.378;9.018;2022-07-23T06:53:46;6.72;;;6.00;;
10283;SDS011;5187;52.378;9.018;2022-07-23T06:56:14;7.25;;;5.20;;
10283;SDS011;5187;52.378;9.018;2022-07-23T06:58:43;8.07;;;5.00;;
10283;SDS011;5187;52.378;9.018;2022-07-23T07:01:11;6.72;;;4.53;;
10283;SDS011;5187;52.378;9.018;2022-07-23T07:03:40;6.78;;;4.55;;
10283;SDS011;5187;52.378;9.018;2022-07-23T07:06:10;7.90;;;4.57;;
10283;SDS011;5187;52.378;9.018;2022-07-23T07:08:38;7.57;;;4.75;;
10283;SDS011;5187;52.378;9.018;2022-07-23T07:11:07;7.75;;;4.57;;
10283;SDS011;5187;52.378;9.018;2022-07-23T07:13:35;5.75;;;4.45;;
10283;SDS011;5187;52.378;9.018;2022-07-23T07:16:04;8.63;;;4.68;;
10283;SDS011;5187;52.378;9.018;2022-07-23T07:18:33;5.80;;;4.38;;
10283;SDS011;5187;52.378;9.018;2022-07-23T07:21:01;5.00;;;4.30;;
10283;SDS011;5187;52.378;9.018;2022-07-23T07:23:31;7.03;;;3.90;;
10283;SDS011;5187;52.378;9.018;2022-07-23T07:25:59;4.90;;;4.40;;
10283;SDS011;5187;52.378;9.018;2022-07-23T07:28:28;5.95;;;4.80;;
10283;SDS011;5187;52.378;9.018;2022-07-23T07:30:56;4.78;;;4.20;;
10283;SDS011;5187;52.378;9.018;2022-07-23T07:33:25;5.25;;;4.75;;
10283;SDS011;5187;52.378;9.018;2022-07-23T07:35:54;6.45;;;4.78;;
10283;SDS011;5187;52.378;9.018;2022-07-23T07:38:22;5.72;;;4.50;;
10283;SDS011;5187;52.378;9.018;2022-07-23T07:40:52;8.55;;;4.75;;
10283;SDS011;5187;52.378;9.018;2022-07-23T07:43:21;7.45;;;5.07;;
10283;SDS011;5187;52.378;9.018;2022-07-23T07:45:49;6.82;;;4.40;;
10283;SDS011;5187;52.378;9.018;2022-07-23T07:48:18;6.25;;;5.03;;
10283;SDS011;5187;52.378;9.018;2022-07-23T07:50:46;7.45;;;4.10;;
10283;SDS011;5187;52.378;9.018;2022-07-23T07:53:15;5.50;;;3.63;;
10283;SDS011;5187;52.378;9.018;2022-07-23T07:55:43;5.28;;;4.15;;
10283;SDS011;5187;52.378;9.018;2022-07-23T07:58:18;4.93;;;4.00;;
10283;SDS011;5187;52.378;9.018;2022-07-23T08:00:47;6.40;;;4.55;;
10283;SDS011;5187;52.378;9.018;2022-07-23T08:03:15;5.32;;;3.80;;
10283;SDS011;5187;52.378;9.018;2022-07-23T08:05:45;6.50;;;4.32;;
10283;SDS011;5187;52.378;9.018;2022-07-23T08:08:13;5.15;;;4.28;;
10283;SDS011;5187;52.378;9.018;2022-07-23T08:10:42;4.88;;;4.20;;
10283;SDS011;5187;52.378;9.018;2022-07-23T08:13:12;4.97;;;3.85;;
10283;SDS011;5187;52.378;9.018;2022-07-23T08:15:43;4.40;;;3.90;;
10283;SDS011;5187;52.378;9.018;2022-07-23T08:18:12;6.38;;;4.00;;
10283;SDS011;5187;52.378;9.018;2022-07-23T08:20:40;5.57;;;4.05;;
10283;SDS011;5187;52.378;9.018;2022-07-23T08:23:09;6.28;;;4.05;;
10283;SDS011;5187;52.378;9.018;2022-07-23T08:25:38;4.47;;;4.00;;
10283;SDS011;5187;52.378;9.018;2022-07-23T08:28:08;3.58;;;3.22;;
10283;SDS011;5187;52.378;9.018;2022-07-23T08:30:37;3.88;;;3.00;;
10283;SDS011;5187;52.378;9.018;2022-07-23T08:33:08;4.78;;;3.50;;
10283;SDS011;5187;52.378;9.018;2022-07-23T08:35:57;3.83;;;2.88;;
10283;SDS011;5187;52.378;9.018;2022-07-23T08:38:26;5.50;;;3.25;;
10283;SDS011;5187;52.378;9.018;2022-07-23T08:40:55;3.47;;;2.97;;
10283;SDS011;5187;52.378;9.018;2022-07-23T08:43:25;4.03;;;2.72;;
10283;SDS011;5187;52.378;9.018;2022-07-23T08:45:54;3.70;;;2.40;;
10283;SDS011;5187;52.378;9.018;2022-07-23T08:48:25;3.25;;;2.78;;
10283;SDS011;5187;52.378;9.018;2022-07-23T08:50:55;3.58;;;3.00;;
10283;SDS011;5187;52.378;9.018;2022-07-23T08:53:24;3.17;;;2.30;;
10283;SDS011;5187;52.378;9.018;2022-07-23T08:55:54;3.67;;;2.38;;
10283;SDS011;5187;52.378;9.018;2022-07-23T08:58:23;3.25;;;2.15;;
10283;SDS011;5187;52.378;9.018;2022-07-23T09:00:54;3.95;;;2.63;;
10283;SDS011;5187;52.378;9.018;2022-07-23T09:03:25;4.72;;;2.28;;
10283;SDS011;5187;52.378;9.018;2022-07-23T09:05:54;4.50;;;2.20;;
10283;SDS011;5187;52.378;9.018;2022-07-23T09:08:33;3.45;;;2.30;;
10283;SDS011;5187;52.378;9.018;2022-07-23T09:11:03;3.55;;;2.15;;
10283;SDS011;5187;52.378;9.018;2022-07-23T09:13:32;5.20;;;1.85;;
10283;SDS011;5187;52.378;9.018;2022-07-23T09:16:02;2.10;;;1.88;;
10283;SDS011;5187;52.378;9.018;2022-07-23T09:18:34;2.63;;;1.88;;
10283;SDS011;5187;52.378;9.018;2022-07-23T09:21:07;4.72;;;1.92;;
10283;SDS011;5187;52.378;9.018;2022-07-23T09:23:36;2.97;;;1.77;;
10283;SDS011;5187;52.378;9.018;2022-07-23T09:26:16;2.88;;;1.90;;
10283;SDS011;5187;52.378;9.018;2022-07-23T09:28:52;3.35;;;1.88;;
10283;SDS011;5187;52.378;9.018;2022-07-23T09:31:21;3.92;;;1.60;;
10283;SDS011;5187;52.378;9.018;2022-07-23T09:33:51;2.03;;;1.50;;
10283;SDS011;5187;52.378;9.018;2022-07-23T09:36:27;3.45;;;1.48;;
10283;SDS011;5187;52.378;9.018;2022-07-23T09:38:55;3.58;;;1.80;;
10283;SDS011;5187;52.378;9.018;2022-07-23T09:41:24;2.63;;;1.80;;
10283;SDS011;5187;52.378;9.018;2022-07-23T09:43:55;3.22;;;1.60;;
10283;SDS011;5187;52.378;9.018;2022-07-23T09:46:25;3.00;;;1.60;;
10283;SDS011;5187;52.378;9.018;2022-07-23T09:48:56;1.65;;;1.50;;
10283;SDS011;5187;52.378;9.018;2022-07-23T09:51:25;3.90;;;1.55;;
10283;SDS011;5187;52.378;9.018;2022-07-23T09:53:57;4.07;;;1.70;;
10283;SDS011;5187;52.378;9.018;2022-07-23T09:56:26;2.63;;;1.42;;
10283;SDS011;5187;52.378;9.018;2022-07-23T09:58:55;1.42;;;1.30;;
10283;SDS011;5187;52.378;9.018;2022-07-23T10:01:30;2.00;;;1.48;;
10283;SDS011;5187;52.378;9.018;2022-07-23T10:04:00;1.88;;;1.40;;
10283;SDS011;5187;52.378;9.018;2022-07-23T10:06:30;2.75;;;1.60;;
10283;SDS011;5187;52.378;9.018;2022-07-23T10:08:59;2.08;;;1.67;;
10283;SDS011;5187;52.378;9.018;2022-07-23T10:11:28;2.00;;;1.70;;
10283;SDS011;5187;52.378;9.018;2022-07-23T10:13:57;2.90;;;1.60;;
10283;SDS011;5187;52.378;9.018;2022-07-23T10:16:28;1.75;;;1.30;;
10283;SDS011;5187;52.378;9.018;2022-07-23T10:18:56;2.40;;;1.10;;
10283;SDS011;5187;52.378;9.018;2022-07-23T10:21:27;2.50;;;1.40;;
10283;SDS011;5187;52.378;9.018;2022-07-23T10:24:04;3.63;;;1.50;;
10283;SDS011;5187;52.378;9.018;2022-07-23T10:26:38;3.15;;;1.20;;
10283;SDS011;5187;52.378;9.018;2022-07-23T10:29:14;3.42;;;1.60;;
10283;SDS011;5187;52.378;9.018;2022-07-23T10:31:47;2.78;;;1.50;;
10283;SDS011;5187;52.378;9.018;2022-07-23T10:34:30;1.88;;;1.60;;
10283;SDS011;5187;52.378;9.018;2022-07-23T10:37:05;1.83;;;1.25;;
10283;SDS011;5187;52.378;9.018;2022-07-23T10:39:36;2.92;;;1.60;;
10283;SDS011;5187;52.378;9.018;2022-07-23T10:42:08;2.25;;;1.58;;
10283;SDS011;5187;52.378;9.018;2022-07-23T10:44:38;2.80;;;1.80;;
10283;SDS011;5187;52.378;9.018;2022-07-23T10:47:09;2.42;;;1.40;;
10283;SDS011;5187;52.378;9.018;2022-07-23T10:52:40;3.63;;;1.67;;
10283;SDS011;5187;52.378;9.018;2022-07-23T10:57:56;2.08;;;1.25;;
10283;SDS011;5187;52.378;9.018;2022-07-23T11:00:25;1.83;;;1.20;;
10283;SDS011;5187;52.378;9.018;2022-07-23T11:02:55;4.80;;;1.33;;
10283;SDS011;5187;52.378;9.018;2022-07-23T11:05:25;1.67;;;1.20;;
10283;SDS011;5187;52.378;9.018;2022-07-23T11:10:43;2.70;;;1.00;;
10283;SDS011;5187;52.378;9.018;2022-07-23T11:19:03;1.63;;;1.10;;
10283;SDS011;5187;52.378;9.018;2022-07-23T11:21:45;2.13;;;1.13;;
10283;SDS011;5187;52.378;9.018;2022-07-23T11:24:15;2.85;;;1.15;;
10283;SDS011;5187;52.378;9.018;2022-07-23T11:26:46;2.08;;;1.23;;
10283;SDS011;5187;52.378;9.018;2022-07-23T11:32:03;1.98;;;1.60;;
10283;SDS011;5187;52.378;9.018;2022-07-23T11:34:32;2.80;;;1.00;;
10283;SDS011;5187;52.378;9.018;2022-07-23T11:37:01;2.58;;;1.30;;
10283;SDS011;5187;52.378;9.018;2022-07-23T11:39:30;1.05;;;0.85;;
10283;SDS011;5187;52.378;9.018;2022-07-23T11:42:02;1.92;;;1.00;;
10283;SDS011;5187;52.378;9.018;2022-07-23T11:44:31;1.63;;;1.02;;
10283;SDS011;5187;52.378;9.018;2022-07-23T11:47:14;1.95;;;1.00;;
10283;SDS011;5187;52.378;9.018;2022-07-23T11:49:51;1.67;;;1.20;;
10283;SDS011;5187;52.378;9.018;2022-07-23T11:52:19;2.00;;;1.05;;
10283;SDS011;5187;52.378;9.018;2022-07-23T11:54:49;2.92;;;1.00;;
10283;SDS011;5187;52.378;9.018;2022-07-23T11:57:19;1.30;;;1.00;;
10283;SDS011;5187;52.378;9.018;2022-07-23T11:59:50;3.53;;;1.10;;
10283;SDS011;5187;52.378;9.018;2022-07-23T12:02:19;1.02;;;0.82;;
10283;SDS011;5187;52.378;9.018;2022-07-23T12:04:49;1.50;;;1.10;;
10283;SDS011;5187;52.378;9.018;2022-07-23T12:07:23;0.90;;;0.90;;
10283;SDS011;5187;52.378;9.018;2022-07-23T12:09:51;1.23;;;0.90;;
10283;SDS011;5187;52.378;9.018;2022-07-23T12:12:22;3.00;;;1.10;;
10283;SDS011;5187;52.378;9.018;2022-07-23T12:14:51;2.60;;;1.00;;
10283;SDS011;5187;52.378;9.018;2022-07-23T12:17:20;4.88;;;1.20;;
10283;SDS011;5187;52.378;9.018;2022-07-23T12:19:48;1.67;;;1.27;;
10283;SDS011;5187;52.378;9.018;2022-07-23T12:22:17;2.17;;;1.15;;
10283;SDS011;5187;52.378;9.018;2022-07-23T12:24:53;1.73;;;1.17;;
10283;SDS011;5187;52.378;9.018;2022-07-23T12:27:23;1.20;;;1.00;;
10283;SDS011;5187;52.378;9.018;2022-07-23T12:29:52;1.52;;;1.10;;
10283;SDS011;5187;52.378;9.018;2022-07-23T12:32:21;1.00;;;1.00;;
10283;SDS011;5187;52.378;9.018;2022-07-23T12:34:50;2.35;;;1.13;;
10283;SDS011;5187;52.378;9.018;2022-07-23T12:37:26;1.75;;;0.95;;
10283;SDS011;5187;52.378;9.018;2022-07-23T12:39:54;2.35;;;1.20;;
10283;SDS011;5187;52.378;9.018;2022-07-23T12:42:24;2.20;;;1.10;;
10283;SDS011;5187;52.378;9.018;2022-07-23T12:45:02;1.27;;;1.08;;
10283;SDS011;5187;52.378;9.018;2022-07-23T12:47:31;2.65;;;1.10;;
10283;SDS011;5187;52.378;9.018;2022-07-23T12:50:31;3.35;;;0.88;;
10283;SDS011;5187;52.378;9.018;2022-07-23T12:53:03;1.40;;;0.88;;
10283;SDS011;5187;52.378;9.018;2022-07-23T12:55:39;2.55;;;1.30;;
10283;SDS011;5187;52.378;9.018;2022-07-23T12:58:39;1.25;;;1.00;;
10283;SDS011;5187;52.378;9.018;2022-07-23T13:01:28;1.33;;;1.10;;
10283;SDS011;5187;52.378;9.018;2022-07-23T13:04:00;2.10;;;1.10;;
10283;SDS011;5187;52.378;9.018;2022-07-23T13:06:49;1.65;;;1.00;;
10283;SDS011;5187;52.378;9.018;2022-07-23T13:09:18;1.35;;;1.08;;
10283;SDS011;5187;52.378;9.018;2022-07-23T13:11:47;1.73;;;1.20;;
10283;SDS011;5187;52.378;9.018;2022-07-23T13:14:18;3.08;;;0.98;;
10283;SDS011;5187;52.378;9.018;2022-07-23T13:16:47;2.50;;;1.13;;
10283;SDS011;5187;52.378;9.018;2022-07-23T13:19:16;1.13;;;0.95;;
10283;SDS011;5187;52.378;9.018;2022-07-23T13:21:44;3.20;;;1.00;;
10283;SDS011;5187;52.378;9.018;2022-07-23T13:24:13;1.73;;;0.80;;
10283;SDS011;5187;52.378;9.018;2022-07-23T13:26:41;1.20;;;1.00;;
10283;SDS011;5187;52.378;9.018;2022-07-23T13:29:13;1.35;;;1.10;;
10283;SDS011;5187;52.378;9.018;2022-07-23T13:32:03;1.35;;;1.00;;
10283;SDS011;5187;52.378;9.018;2022-07-23T13:34:51;1.38;;;1.00;;
10283;SDS011;5187;52.378;9.018;2022-07-23T13:37:20;2.28;;;0.90;;
10283;SDS011;5187;52.378;9.018;2022-07-23T13:39:50;1.20;;;1.02;;
10283;SDS011;5187;52.378;9.018;2022-07-23T13:42:19;2.33;;;0.80;;
10283;SDS011;5187;52.378;9.018;2022-07-23T13:44:48;2.22;;;0.95;;
10283;SDS011;5187;52.378;9.018;2022-07-23T13:47:18;1.85;;;1.00;;
10283;SDS011;5187;52.378;9.018;2022-07-23T13:49:47;1.00;;;0.88;;
10283;SDS011;5187;52.378;9.018;2022-07-23T13:52:15;2.13;;;0.90;;
10283;SDS011;5187;52.378;9.018;2022-07-23T13:54:45;0.80;;;0.80;;
10283;SDS011;5187;52.378;9.018;2022-07-23T13:57:14;1.80;;;0.95;;
10283;SDS011;5187;52.378;9.018;2022-07-23T13:59:43;1.27;;;1.08;;
10283;SDS011;5187;52.378;9.018;2022-07-23T14:02:12;0.88;;;0.70;;
10283;SDS011;5187;52.378;9.018;2022-07-23T14:04:52;1.50;;;1.05;;
10283;SDS011;5187;52.378;9.018;2022-07-23T14:07:20;1.55;;;0.90;;
10283;SDS011;5187;52.378;9.018;2022-07-23T14:09:49;2.90;;;1.00;;
10283;SDS011;5187;52.378;9.018;2022-07-23T14:12:18;1.45;;;1.13;;
10283;SDS011;5187;52.378;9.018;2022-07-23T14:14:49;4.22;;;1.00;;
10283;SDS011;5187;52.378;9.018;2022-07-23T14:17:18;2.33;;;1.00;;
10283;SDS011;5187;52.378;9.018;2022-07-23T14:19:47;2.28;;;1.10;;
10283;SDS011;5187;52.378;9.018;2022-07-23T14:22:18;1.48;;;0.90;;
10283;SDS011;5187;52.378;9.018;2022-07-23T14:25:06;1.55;;;1.17;;
10283;SDS011;5187;52.378;9.018;2022-07-23T14:27:36;1.58;;;0.88;;
10283;SDS011;5187;52.378;9.018;2022-07-23T14:30:06;1.38;;;0.98;;
10283;SDS011;5187;52.378;9.018;2022-07-23T14:32:36;3.80;;;1.08;;
10283;SDS011;5187;52.378;9.018;2022-07-23T14:35:05;2.47;;;1.02;;
10283;SDS011;5187;52.378;9.018;2022-07-23T14:37:37;1.45;;;0.98;;
10283;SDS011;5187;52.378;9.018;2022-07-23T14:40:08;4.43;;;1.10;;
10283;SDS011;5187;52.378;9.018;2022-07-23T14:42:37;1.90;;;0.82;;
10283;SDS011;5187;52.378;9.018;2022-07-23T14:45:05;0.80;;;0.80;;
10283;SDS011;5187;52.378;9.018;2022-07-23T14:47:36;0.85;;;0.85;;
10283;SDS011;5187;52.378;9.018;2022-07-23T14:50:05;0.77;;;0.70;;
10283;SDS011;5187;52.378;9.018;2022-07-23T14:52:34;1.98;;;0.90;;
10283;SDS011;5187;52.378;9.018;2022-07-23T14:55:04;0.80;;;0.80;;
10283;SDS011;5187;52.378;9.018;2022-07-23T14:57:33;1.88;;;1.08;;
10283;SDS011;5187;52.378;9.018;2022-07-23T15:00:02;1.95;;;0.80;;
10283;SDS011;5187;52.378;9.018;2022-07-23T15:02:31;1.98;;;0.80;;
10283;SDS011;5187;52.378;9.018;2022-07-23T15:04:59;1.15;;;1.00;;
10283;SDS011;5187;52.378;9.018;2022-07-23T15:07:32;1.35;;;0.90;;
10283;SDS011;5187;52.378;9.018;2022-07-23T15:10:01;1.88;;;1.10;;
10283;SDS011;5187;52.378;9.018;2022-07-23T15:12:31;1.90;;;1.48;;
10283;SDS011;5187;52.378;9.018;2022-07-23T15:14:59;3.10;;;1.00;;
10283;SDS011;5187;52.378;9.018;2022-07-23T15:17:35;1.15;;;0.95;;
10283;SDS011;5187;52.378;9.018;2022-07-23T15:20:05;1.13;;;1.00;;
10283;SDS011;5187;52.378;9.018;2022-07-23T15:22:34;1.08;;;0.88;;
10283;SDS011;5187;52.378;9.018;2022-07-23T15:25:03;1.00;;;0.90;;
10283;SDS011;5187;52.378;9.018;2022-07-23T15:27:34;2.28;;;0.95;;